This is the latest recevied weather packets stored in our database for station/object OE3MHU-13. If no packets are shown the sender has not sent any weather packets the latest 10 day(s).
| Time | Temp. | Humidity | Pressure | Rain* | Wind** | Luminosity | Snow |
|---|---|---|---|---|---|---|---|
| 1777960306 | 15° C | 67% | 1010.8 hPa | 0 mm | - | - | - |
| 1777960003 | 15° C | 66% | 1010.8 hPa | 0 mm | - | - | - |
| 1777959703 | 15° C | 66% | 1010.8 hPa | 0 mm | - | - | - |
| 1777959402 | 15° C | 67% | 1010.8 hPa | 0 mm | - | - | - |
| 1777959103 | 14.44° C | 67% | 1010.8 hPa | 0 mm | - | - | - |
| 1777958799 | 14.44° C | 68% | 1010.8 hPa | 0 mm | - | - | - |
| 1777958498 | 13.89° C | 69% | 1010.8 hPa | 0 mm | - | - | - |
| 1777958193 | 13.89° C | 71% | 1010.8 hPa | 0 mm | - | - | - |
| 1777958179 | 13.33° C | 72% | 1010.9 hPa | 0 mm | - | - | - |
| 1777957595 | 12.78° C | 74% | 1010.8 hPa | 0 mm | - | - | - |
| 1777957291 | 12.22° C | 76% | 1010.9 hPa | 0 mm | - | - | - |
| 1777956991 | 11.67° C | 77% | 1010.8 hPa | 0 mm | - | - | - |
| 1777956691 | 11.67° C | 77% | 1010.7 hPa | 0 mm | - | - | - |
| 1777956385 | 11.67° C | 77% | 1010.7 hPa | 0 mm | - | - | - |
| 1777956086 | 11.11° C | 77% | 1010.7 hPa | 0 mm | - | - | - |
| 1777955783 | 11.11° C | 77% | 1010.7 hPa | 0 mm | - | - | - |
| 1777955483 | 11.11° C | 77% | 1010.7 hPa | 0 mm | - | - | - |
| 1777955181 | 11.11° C | 77% | 1010.7 hPa | 0 mm | - | - | - |
| 1777954879 | 11.11° C | 77% | 1010.7 hPa | 0 mm | - | - | - |
| 1777954577 | 11.11° C | 77% | 1010.7 hPa | 0 mm | - | - | - |
| 1777954277 | 11.67° C | 76% | 1010.6 hPa | 0 mm | - | - | - |
| 1777953977 | 11.67° C | 76% | 1010.7 hPa | 0 mm | - | - | - |
| 1777953673 | 11.67° C | 76% | 1010.7 hPa | 0 mm | - | - | - |
| 1777953375 | 11.67° C | 76% | 1010.8 hPa | 0 mm | - | - | - |
| 1777942049 | 15° C | 64% | 1011.1 hPa | 0 mm | - | - | - |
* Rain latest hour (hover to see other rain measurements)
** Current wind speed in m/s (hover to see current wind gust speed)